createdAt,value
2019-05-16T00:00:20.133Z,1005.56
2019-05-16T00:01:20.152Z,1005.59
2019-05-16T00:02:20.179Z,1005.59
2019-05-16T00:03:20.195Z,1005.60
2019-05-16T00:04:20.217Z,1005.67
2019-05-16T00:05:20.242Z,1005.65
2019-05-16T00:06:20.255Z,1005.66
2019-05-16T00:07:20.275Z,1005.67
2019-05-16T00:08:20.298Z,1005.68
2019-05-16T00:09:20.319Z,1005.72
2019-05-16T00:10:20.338Z,1005.70
2019-05-16T00:11:20.366Z,1005.72
2019-05-16T00:12:20.378Z,1005.76
2019-05-16T00:13:20.404Z,1005.73
2019-05-16T00:14:20.424Z,1005.73
2019-05-16T00:15:20.443Z,1005.72
2019-05-16T00:16:20.468Z,1005.68
2019-05-16T00:17:20.481Z,1005.73
2019-05-16T00:18:20.505Z,1005.75
2019-05-16T00:19:20.526Z,1005.75
2019-05-16T00:20:20.547Z,1005.76
2019-05-16T00:21:20.565Z,1005.71
2019-05-16T00:22:20.586Z,1005.78
2019-05-16T00:23:20.608Z,1005.77
2019-05-16T00:24:20.630Z,1005.81
2019-05-16T00:25:20.651Z,1005.79
2019-05-16T00:26:20.673Z,1005.77
2019-05-16T00:27:20.688Z,1005.80
2019-05-16T00:28:20.714Z,1005.84
2019-05-16T00:29:20.734Z,1005.82
2019-05-16T00:30:20.752Z,1005.83
2019-05-16T00:31:20.777Z,1005.84
2019-05-16T00:32:20.794Z,1005.87
2019-05-16T00:33:20.817Z,1005.84
2019-05-16T00:34:20.835Z,1005.86
2019-05-16T00:35:20.857Z,1005.84
2019-05-16T00:36:20.876Z,1005.82
2019-05-16T00:37:23.025Z,1005.82
2019-05-16T00:38:20.920Z,1005.83
2019-05-16T00:39:20.938Z,1005.86
2019-05-16T00:40:20.972Z,1005.84
2019-05-16T00:41:20.983Z,1005.84
2019-05-16T00:42:21.003Z,1005.87
2019-05-16T00:43:21.023Z,1005.91
2019-05-16T00:44:21.044Z,1005.90
2019-05-16T00:45:21.063Z,1005.95
2019-05-16T00:46:21.084Z,1005.94
2019-05-16T00:47:21.104Z,1005.91
2019-05-16T00:48:21.126Z,1005.94
2019-05-16T00:49:21.149Z,1006.00
2019-05-16T00:50:21.170Z,1006.04
2019-05-16T00:51:21.192Z,1006.05
2019-05-16T00:52:21.213Z,1006.08
2019-05-16T00:53:21.241Z,1006.12
2019-05-16T00:54:21.253Z,1006.12
2019-05-16T00:55:21.273Z,1006.18
2019-05-16T00:56:21.301Z,1006.16
2019-05-16T00:57:21.329Z,1006.14
2019-05-16T00:58:21.338Z,1006.12
2019-05-16T00:59:21.356Z,1006.11
2019-05-16T01:00:21.380Z,1006.13
2019-05-16T01:01:21.400Z,1006.09
2019-05-16T01:02:21.421Z,1006.12
2019-05-16T01:03:21.445Z,1006.14
2019-05-16T01:04:21.461Z,1006.13
2019-05-16T01:05:21.481Z,1006.13
2019-05-16T01:06:23.011Z,1006.14
2019-05-16T01:07:21.526Z,1006.12
2019-05-16T01:08:21.553Z,1006.19
2019-05-16T01:09:21.568Z,1006.14
2019-05-16T01:10:21.587Z,1006.09
2019-05-16T01:11:21.612Z,1006.17
2019-05-16T01:12:21.630Z,1006.16
2019-05-16T01:13:21.661Z,1006.14
2019-05-16T01:14:21.673Z,1006.12
2019-05-16T01:15:21.693Z,1006.13
2019-05-16T01:16:21.722Z,1006.13
2019-05-16T01:17:21.737Z,1006.09
2019-05-16T01:18:21.757Z,1006.12
2019-05-16T01:19:21.777Z,1006.10
2019-05-16T01:20:21.799Z,1006.14
2019-05-16T01:21:21.821Z,1006.13
2019-05-16T01:22:21.842Z,1006.14
2019-05-16T01:23:21.863Z,1006.12
2019-05-16T01:24:21.889Z,1006.14
2019-05-16T01:25:21.919Z,1006.15
2019-05-16T01:26:21.928Z,1006.19
2019-05-16T01:27:21.949Z,1006.20
2019-05-16T01:28:21.971Z,1006.21
2019-05-16T01:29:21.993Z,1006.21
2019-05-16T01:30:22.014Z,1006.21
2019-05-16T01:31:22.034Z,1006.24
2019-05-16T01:32:22.053Z,1006.25
2019-05-16T01:33:22.076Z,1006.25
2019-05-16T01:34:22.097Z,1006.28
2019-05-16T01:35:22.121Z,1006.32
2019-05-16T01:36:33.340Z,1006.33
2019-05-16T01:37:22.163Z,1006.36
2019-05-16T01:38:22.185Z,1006.37
2019-05-16T01:39:22.204Z,1006.38
2019-05-16T01:40:22.226Z,1006.40
2019-05-16T01:41:22.247Z,1006.43
2019-05-16T01:42:22.269Z,1006.39
2019-05-16T01:43:22.294Z,1006.46
2019-05-16T01:44:22.312Z,1006.44
2019-05-16T01:45:22.334Z,1006.41
2019-05-16T01:46:22.355Z,1006.45
2019-05-16T01:47:22.377Z,1006.45
2019-05-16T01:48:22.398Z,1006.44
2019-05-16T01:49:22.420Z,1006.46
2019-05-16T01:50:22.447Z,1006.44
2019-05-16T01:51:22.463Z,1006.48
2019-05-16T01:52:22.486Z,1006.47
2019-05-16T01:53:22.508Z,1006.48
2019-05-16T01:54:22.530Z,1006.51
2019-05-16T01:55:22.554Z,1006.50
2019-05-16T01:56:22.570Z,1006.51
2019-05-16T01:57:22.592Z,1006.54
2019-05-16T01:58:22.614Z,1006.53
2019-05-16T01:59:22.638Z,1006.53
2019-05-16T02:00:25.635Z,1006.51
2019-05-16T02:01:22.678Z,1006.51
2019-05-16T02:02:22.706Z,1006.51
2019-05-16T02:03:22.729Z,1006.44
2019-05-16T02:04:22.745Z,1006.44
2019-05-16T02:05:22.770Z,1006.48
2019-05-16T02:06:22.787Z,1006.44
2019-05-16T02:07:22.817Z,1006.44
2019-05-16T02:08:22.842Z,1006.42
2019-05-16T02:09:22.852Z,1006.38
2019-05-16T02:10:22.871Z,1006.41
2019-05-16T02:11:22.895Z,1006.42
2019-05-16T02:12:22.916Z,1006.37
2019-05-16T02:13:23.375Z,1006.38
2019-05-16T02:14:22.962Z,1006.36
2019-05-16T02:15:22.986Z,1006.37
2019-05-16T02:16:23.002Z,1006.37
2019-05-16T02:17:23.026Z,1006.38
2019-05-16T02:18:23.047Z,1006.40
2019-05-16T02:19:23.070Z,1006.41
2019-05-16T02:20:23.097Z,1006.42
2019-05-16T02:21:23.113Z,1006.39
2019-05-16T02:22:23.145Z,1006.40
2019-05-16T02:23:23.159Z,1006.46
2019-05-16T02:24:23.179Z,1006.41
2019-05-16T02:25:23.202Z,1006.43
2019-05-16T02:26:23.238Z,1006.42
2019-05-16T02:27:23.251Z,1006.46
2019-05-16T02:28:27.762Z,1006.39
2019-05-16T02:29:23.299Z,1006.38
2019-05-16T02:30:23.310Z,1006.37
2019-05-16T02:31:23.331Z,1006.39
2019-05-16T02:32:23.359Z,1006.33
2019-05-16T02:33:23.377Z,1006.31
2019-05-16T02:34:23.399Z,1006.28
2019-05-16T02:35:23.424Z,1006.29
2019-05-16T02:36:23.653Z,1006.28
2019-05-16T02:37:29.334Z,1006.28
2019-05-16T02:38:23.485Z,1006.27
2019-05-16T02:39:23.511Z,1006.29
2019-05-16T02:40:23.539Z,1006.26
2019-05-16T02:41:23.554Z,1006.28
2019-05-16T02:42:23.572Z,1006.28
2019-05-16T02:43:26.176Z,1006.28
2019-05-16T02:44:24.573Z,1006.25
2019-05-16T02:45:24.543Z,1006.26
2019-05-16T02:46:23.661Z,1006.26
2019-05-16T02:47:23.685Z,1006.23
2019-05-16T02:48:23.713Z,1006.20
2019-05-16T02:49:23.733Z,1006.24
2019-05-16T02:50:23.754Z,1006.23
2019-05-16T02:51:23.774Z,1006.25
2019-05-16T02:52:23.803Z,1006.23
2019-05-16T02:53:23.818Z,1006.25
2019-05-16T02:54:23.858Z,1006.27
2019-05-16T02:55:23.865Z,1006.21
2019-05-16T02:56:23.888Z,1006.22
2019-05-16T02:57:23.905Z,1006.21
2019-05-16T02:58:23.928Z,1006.19
2019-05-16T02:59:23.956Z,1006.21
2019-05-16T03:00:23.977Z,1006.20
2019-05-16T03:01:23.994Z,1006.22
2019-05-16T03:02:24.017Z,1006.17
2019-05-16T03:03:24.040Z,1006.20
2019-05-16T03:04:24.078Z,1006.19
2019-05-16T03:05:24.173Z,1006.18
2019-05-16T03:06:24.103Z,1006.15
2019-05-16T03:07:37.956Z,1006.12
2019-05-16T03:08:24.147Z,1006.15
2019-05-16T03:09:24.171Z,1006.10
2019-05-16T03:10:24.201Z,1006.08
2019-05-16T03:11:24.220Z,1006.08
2019-05-16T03:12:24.241Z,1006.06
2019-05-16T03:13:24.269Z,1006.10
2019-05-16T03:14:24.283Z,1006.09
2019-05-16T03:15:24.315Z,1006.09
2019-05-16T03:16:24.335Z,1006.11
2019-05-16T03:17:24.351Z,1006.09
2019-05-16T03:18:24.370Z,1006.08
2019-05-16T03:19:24.395Z,1006.06
2019-05-16T03:20:24.416Z,1006.07
2019-05-16T03:21:24.440Z,1006.05
2019-05-16T03:22:24.460Z,1006.04
2019-05-16T03:23:24.485Z,1006.02
2019-05-16T03:24:24.507Z,1005.99
2019-05-16T03:25:24.528Z,1005.95
2019-05-16T03:26:24.553Z,1005.98
2019-05-16T03:27:24.598Z,1005.98
2019-05-16T03:28:24.598Z,1005.95
2019-05-16T03:29:24.629Z,1005.96
2019-05-16T03:30:24.722Z,1005.97
2019-05-16T03:31:25.467Z,1005.94
2019-05-16T03:32:24.755Z,1005.88
2019-05-16T03:33:32.826Z,1005.89
2019-05-16T03:34:26.270Z,1005.84
2019-05-16T03:35:25.479Z,1005.81
2019-05-16T03:36:25.795Z,1005.85
2019-05-16T03:37:25.343Z,1005.81
2019-05-16T03:38:24.822Z,1005.80
2019-05-16T03:39:24.861Z,1005.81
2019-05-16T03:40:24.864Z,1005.78
2019-05-16T03:41:24.891Z,1005.75
2019-05-16T03:42:24.911Z,1005.75
2019-05-16T03:43:24.928Z,1005.75
2019-05-16T03:44:24.956Z,1005.72
2019-05-16T03:45:24.976Z,1005.70
2019-05-16T03:46:25.000Z,1005.69
2019-05-16T03:47:25.033Z,1005.69
2019-05-16T03:48:25.048Z,1005.67
2019-05-16T03:49:25.070Z,1005.66
2019-05-16T03:50:25.089Z,1005.64
2019-05-16T03:51:25.110Z,1005.62
2019-05-16T03:52:25.151Z,1005.59
2019-05-16T03:53:25.156Z,1005.58
2019-05-16T03:54:25.180Z,1005.56
2019-05-16T03:55:25.206Z,1005.54
2019-05-16T03:56:25.228Z,1005.54
2019-05-16T03:57:25.254Z,1005.51
2019-05-16T03:58:25.280Z,1005.52
2019-05-16T03:59:25.298Z,1005.50
2019-05-16T04:00:25.318Z,1005.45
2019-05-16T04:01:25.340Z,1005.42
2019-05-16T04:02:25.364Z,1005.45
2019-05-16T04:03:28.390Z,1005.45
2019-05-16T04:04:25.416Z,1005.45
2019-05-16T04:05:25.429Z,1005.41
2019-05-16T04:06:25.452Z,1005.38
2019-05-16T04:07:25.478Z,1005.40
2019-05-16T04:08:25.904Z,1005.37
2019-05-16T04:09:25.519Z,1005.39
2019-05-16T04:10:25.553Z,1005.34
2019-05-16T04:11:25.565Z,1005.39
2019-05-16T04:12:25.589Z,1005.36
2019-05-16T04:13:25.612Z,1005.38
2019-05-16T04:14:25.634Z,1005.35
2019-05-16T04:15:25.654Z,1005.37
2019-05-16T04:16:25.680Z,1005.34
2019-05-16T04:17:25.714Z,1005.34
2019-05-16T04:18:25.727Z,1005.31
2019-05-16T04:19:25.750Z,1005.28
2019-05-16T04:20:25.776Z,1005.30
2019-05-16T04:21:25.794Z,1005.27
2019-05-16T04:22:25.817Z,1005.25
2019-05-16T04:23:25.842Z,1005.26
2019-05-16T04:24:25.868Z,1005.19
2019-05-16T04:25:25.890Z,1005.23
2019-05-16T04:26:25.912Z,1005.22
2019-05-16T04:27:25.937Z,1005.19
2019-05-16T04:28:25.958Z,1005.22
2019-05-16T04:29:25.985Z,1005.19
2019-05-16T04:30:26.005Z,1005.19
2019-05-16T04:31:26.027Z,1005.20
2019-05-16T04:32:26.047Z,1005.22
2019-05-16T04:33:26.070Z,1005.16
2019-05-16T04:34:26.096Z,1005.18
2019-05-16T04:35:26.119Z,1005.15
2019-05-16T04:36:26.143Z,1005.16
2019-05-16T04:37:26.519Z,1005.12
2019-05-16T04:38:39.597Z,1005.07
2019-05-16T04:39:26.218Z,1005.08
2019-05-16T04:40:26.232Z,1005.05
2019-05-16T04:41:26.259Z,1005.10
2019-05-16T04:42:26.284Z,1005.04
2019-05-16T04:43:26.304Z,1005.05
2019-05-16T04:44:26.331Z,1004.99
2019-05-16T04:45:26.360Z,1004.98
2019-05-16T04:46:26.375Z,1004.99
2019-05-16T04:47:26.396Z,1004.94
2019-05-16T04:48:26.423Z,1004.92
2019-05-16T04:49:26.462Z,1004.96
2019-05-16T04:50:26.478Z,1004.95
2019-05-16T04:51:26.492Z,1004.93
2019-05-16T04:52:26.517Z,1004.92
2019-05-16T04:53:26.577Z,1004.90
2019-05-16T04:54:26.559Z,1004.88
2019-05-16T04:55:26.588Z,1004.88
2019-05-16T04:56:26.608Z,1004.86
2019-05-16T04:57:26.634Z,1004.79
2019-05-16T04:58:26.652Z,1004.79
2019-05-16T04:59:26.703Z,1004.78
2019-05-16T05:00:26.707Z,1004.82
2019-05-16T05:01:26.726Z,1004.79
2019-05-16T05:02:26.759Z,1004.72
2019-05-16T05:03:26.770Z,1004.69
2019-05-16T05:04:26.795Z,1004.71
2019-05-16T05:05:26.816Z,1004.71
2019-05-16T05:06:26.838Z,1004.69
2019-05-16T05:07:26.864Z,1004.68
2019-05-16T05:08:26.890Z,1004.68
2019-05-16T05:09:26.912Z,1004.67
2019-05-16T05:10:26.932Z,1004.62
2019-05-16T05:11:26.958Z,1004.67
2019-05-16T05:12:26.983Z,1004.62
2019-05-16T05:13:27.007Z,1004.63
2019-05-16T05:14:27.028Z,1004.57
2019-05-16T05:15:27.051Z,1004.58
2019-05-16T05:16:27.074Z,1004.57
2019-05-16T05:17:27.099Z,1004.56
2019-05-16T05:18:27.122Z,1004.53
2019-05-16T05:19:27.160Z,1004.50
2019-05-16T05:20:27.185Z,1004.49
2019-05-16T05:21:27.192Z,1004.46
2019-05-16T05:22:27.215Z,1004.41
2019-05-16T05:23:29.943Z,1004.43
2019-05-16T05:24:27.260Z,1004.39
2019-05-16T05:25:27.289Z,1004.41
2019-05-16T05:26:27.311Z,1004.41
2019-05-16T05:27:27.343Z,1004.38
2019-05-16T05:28:29.758Z,1004.37
2019-05-16T05:29:27.377Z,1004.35
2019-05-16T05:30:27.403Z,1004.34
2019-05-16T05:31:27.437Z,1004.37
2019-05-16T05:32:27.450Z,1004.34
2019-05-16T05:33:29.953Z,1004.34
2019-05-16T05:34:27.497Z,1004.34
2019-05-16T05:35:27.555Z,1004.33
2019-05-16T05:36:29.887Z,1004.30
2019-05-16T05:37:29.601Z,1004.31
2019-05-16T05:38:27.588Z,1004.22
2019-05-16T05:39:27.615Z,1004.27
2019-05-16T05:40:29.612Z,1004.20
2019-05-16T05:41:27.666Z,1004.18
2019-05-16T05:42:30.358Z,1004.15
2019-05-16T05:43:30.329Z,1004.15
2019-05-16T05:44:27.735Z,1004.15
2019-05-16T05:45:27.755Z,1004.11
2019-05-16T05:46:27.794Z,1004.13
2019-05-16T05:47:30.485Z,1004.12
2019-05-16T05:48:30.542Z,1004.07
2019-05-16T05:49:30.128Z,1004.04
2019-05-16T05:50:27.874Z,1004.04
2019-05-16T05:51:30.046Z,1003.97
2019-05-16T05:52:30.352Z,1003.99
2019-05-16T05:53:30.091Z,1003.93
2019-05-16T05:54:27.969Z,1003.94
2019-05-16T05:55:31.131Z,1003.91
2019-05-16T05:56:30.322Z,1003.91
2019-05-16T05:57:30.012Z,1003.86
2019-05-16T05:58:30.806Z,1003.86
2019-05-16T05:59:30.432Z,1003.84
2019-05-16T06:00:30.299Z,1003.81
2019-05-16T06:01:31.241Z,1003.79
2019-05-16T06:02:28.161Z,1003.75
2019-05-16T06:03:32.379Z,1003.73
2019-05-16T06:04:30.379Z,1003.73
2019-05-16T06:05:30.442Z,1003.73
2019-05-16T06:06:30.402Z,1003.67
2019-05-16T06:07:30.069Z,1003.69
2019-05-16T06:08:30.386Z,1003.64
2019-05-16T06:09:32.568Z,1003.68
2019-05-16T06:10:30.291Z,1003.63
2019-05-16T06:11:30.594Z,1003.61
2019-05-16T06:12:30.379Z,1003.59
2019-05-16T06:13:30.826Z,1003.60
2019-05-16T06:14:30.617Z,1003.57
2019-05-16T06:15:30.540Z,1003.58
2019-05-16T06:16:30.784Z,1003.57
2019-05-16T06:17:30.719Z,1003.52
2019-05-16T06:18:30.520Z,1003.56
2019-05-16T06:19:29.767Z,1003.53
2019-05-16T06:20:30.677Z,1003.52
2019-05-16T06:21:33.072Z,1003.46
2019-05-16T06:22:29.890Z,1003.48
2019-05-16T06:23:31.052Z,1003.45
2019-05-16T06:24:30.543Z,1003.41
2019-05-16T06:25:31.555Z,1003.40
2019-05-16T06:26:30.330Z,1003.35
2019-05-16T06:27:30.298Z,1003.37
2019-05-16T06:28:30.887Z,1003.31
2019-05-16T06:29:30.989Z,1003.31
2019-05-16T06:30:30.468Z,1003.29
2019-05-16T06:31:31.287Z,1003.25
2019-05-16T06:32:30.390Z,1003.24
2019-05-16T06:33:30.506Z,1003.23
2019-05-16T06:34:30.180Z,1003.26
2019-05-16T06:35:29.963Z,1003.19
2019-05-16T06:36:30.541Z,1003.16
2019-05-16T06:37:31.011Z,1003.14
2019-05-16T06:38:29.912Z,1003.13
2019-05-16T06:39:41.125Z,1003.09
2019-05-16T06:40:29.527Z,1003.12
2019-05-16T06:41:30.411Z,1003.08
2019-05-16T06:42:29.974Z,1003.09
2019-05-16T06:43:30.071Z,1003.05
2019-05-16T06:44:30.854Z,1003.03
2019-05-16T06:45:29.194Z,1003.03
2019-05-16T06:46:30.656Z,1002.99
2019-05-16T06:47:30.493Z,1003.03
2019-05-16T06:48:30.435Z,1002.99
2019-05-16T06:49:30.365Z,1003.01
2019-05-16T06:50:29.768Z,1002.98
2019-05-16T06:51:30.555Z,1002.96
2019-05-16T06:52:30.118Z,1002.95
2019-05-16T06:53:29.891Z,1002.92
2019-05-16T06:54:29.966Z,1002.91
2019-05-16T06:55:29.677Z,1002.88
2019-05-16T06:56:30.887Z,1002.91
2019-05-16T06:57:30.284Z,1002.87
2019-05-16T06:58:30.233Z,1002.83
2019-05-16T06:59:29.839Z,1002.83
2019-05-16T07:00:30.127Z,1002.81
2019-05-16T07:01:29.803Z,1002.80
2019-05-16T07:02:33.599Z,1002.77
2019-05-16T07:03:30.886Z,1002.73
2019-05-16T07:04:30.500Z,1002.72
2019-05-16T07:05:30.014Z,1002.70
2019-05-16T07:06:48.383Z,1002.66
2019-05-16T07:07:30.812Z,1002.60
2019-05-16T07:08:30.945Z,1002.64
2019-05-16T07:09:30.183Z,1002.55
2019-05-16T07:10:30.690Z,1002.55
2019-05-16T07:11:30.584Z,1002.54
2019-05-16T07:12:33.374Z,1002.55
2019-05-16T07:13:30.452Z,1002.52
2019-05-16T07:14:31.319Z,1002.49
2019-05-16T07:15:29.920Z,1002.46
2019-05-16T07:16:30.118Z,1002.45
2019-05-16T07:17:30.633Z,1002.41
2019-05-16T07:18:30.983Z,1002.42
2019-05-16T07:19:30.205Z,1002.38
2019-05-16T07:20:30.250Z,1002.38
2019-05-16T07:21:31.234Z,1002.32
2019-05-16T07:22:31.179Z,1002.29
2019-05-16T07:23:30.151Z,1002.26
2019-05-16T07:24:30.687Z,1002.23
2019-05-16T07:25:30.186Z,1002.20
2019-05-16T07:26:31.029Z,1002.21
2019-05-16T07:27:30.843Z,1002.16
2019-05-16T07:28:30.325Z,1002.17
2019-05-16T07:29:30.859Z,1002.11
2019-05-16T07:30:30.387Z,1002.11
2019-05-16T07:31:30.304Z,1002.07
2019-05-16T07:32:30.379Z,1002.02
2019-05-16T07:33:31.233Z,1002.02
2019-05-16T07:34:31.168Z,1001.98
2019-05-16T07:35:30.757Z,1001.95
2019-05-16T07:36:31.465Z,1001.94
2019-05-16T07:37:31.603Z,1001.94
2019-05-16T07:38:31.121Z,1001.94
2019-05-16T07:39:30.857Z,1001.89
2019-05-16T07:40:30.944Z,1001.87
2019-05-16T07:41:31.158Z,1001.83
2019-05-16T07:42:30.844Z,1001.84
2019-05-16T07:43:31.134Z,1001.81
2019-05-16T07:44:31.111Z,1001.73
2019-05-16T07:45:30.922Z,1001.73
2019-05-16T07:46:31.594Z,1001.70
2019-05-16T07:47:31.029Z,1001.66
2019-05-16T07:48:31.637Z,1001.65
2019-05-16T07:49:30.759Z,1001.61
2019-05-16T07:50:30.769Z,1001.62
2019-05-16T07:51:31.103Z,1001.60
2019-05-16T07:52:35.821Z,1001.57
2019-05-16T07:53:33.213Z,1001.51
2019-05-16T07:54:34.592Z,1001.53
2019-05-16T07:55:30.958Z,1001.54
2019-05-16T07:56:31.303Z,1001.55
2019-05-16T07:57:30.940Z,1001.57
2019-05-16T07:58:31.447Z,1001.49
2019-05-16T07:59:30.989Z,1001.46
2019-05-16T08:00:48.075Z,1001.49
2019-05-16T08:01:31.062Z,1001.46
2019-05-16T08:02:31.364Z,1001.41
2019-05-16T08:03:31.090Z,1001.44
2019-05-16T08:04:31.117Z,1001.45
2019-05-16T08:05:33.574Z,1001.44
2019-05-16T08:06:34.029Z,1001.39
2019-05-16T08:07:33.564Z,1001.40
2019-05-16T08:08:31.739Z,1001.39
2019-05-16T08:09:31.239Z,1001.38
2019-05-16T08:10:38.066Z,1001.38
2019-05-16T08:11:31.285Z,1001.35
2019-05-16T08:12:33.045Z,1001.37
2019-05-16T08:13:31.334Z,1001.37
2019-05-16T08:14:34.990Z,1001.33
2019-05-16T08:15:31.381Z,1001.34
2019-05-16T08:16:31.410Z,1001.31
2019-05-16T08:17:31.585Z,1001.31
2019-05-16T08:18:31.453Z,1001.32
2019-05-16T08:19:31.480Z,1001.32
2019-05-16T08:20:31.506Z,1001.32
2019-05-16T08:21:31.530Z,1001.30
2019-05-16T08:22:31.551Z,1001.28
2019-05-16T08:23:31.580Z,1001.24
2019-05-16T08:24:35.534Z,1001.27
2019-05-16T08:25:31.626Z,1001.26
2019-05-16T08:26:34.007Z,1001.21
2019-05-16T08:27:31.679Z,1001.25
2019-05-16T08:28:31.703Z,1001.20
2019-05-16T08:29:31.916Z,1001.20
2019-05-16T08:30:31.869Z,1001.22
2019-05-16T08:31:32.116Z,1001.20
2019-05-16T08:32:31.807Z,1001.22
2019-05-16T08:33:32.257Z,1001.24
2019-05-16T08:34:32.367Z,1001.22
2019-05-16T08:35:31.894Z,1001.24
2019-05-16T08:36:31.897Z,1001.23
2019-05-16T08:37:38.547Z,1001.22
2019-05-16T08:38:31.945Z,1001.18
2019-05-16T08:39:31.970Z,1001.22
2019-05-16T08:40:32.206Z,1001.21
2019-05-16T08:41:32.022Z,1001.19
2019-05-16T08:42:32.534Z,1001.24
2019-05-16T08:43:32.069Z,1001.23
2019-05-16T08:44:32.556Z,1001.22
2019-05-16T08:45:32.118Z,1001.21
2019-05-16T08:46:32.591Z,1001.19
2019-05-16T08:47:32.410Z,1001.21
2019-05-16T08:48:32.507Z,1001.20
2019-05-16T08:49:32.217Z,1001.15
2019-05-16T08:50:35.085Z,1001.15
2019-05-16T08:51:33.759Z,1001.10
2019-05-16T08:52:32.291Z,1001.10
2019-05-16T08:53:32.339Z,1001.12
2019-05-16T08:54:32.347Z,1001.09
2019-05-16T08:55:32.389Z,1001.03
2019-05-16T08:56:32.386Z,1000.97
2019-05-16T08:57:33.349Z,1000.98
2019-05-16T08:59:34.414Z,1000.98
2019-05-16T09:00:34.350Z,1001.02
2019-05-16T09:02:36.726Z,1001.02
2019-05-16T09:03:32.924Z,1001.01
2019-05-16T09:04:34.289Z,1001.03
2019-05-16T09:05:32.607Z,1001.04
2019-05-16T09:06:32.704Z,1001.01
2019-05-16T09:07:32.657Z,1001.04
2019-05-16T09:08:33.040Z,1001.03
2019-05-16T09:09:42.095Z,1000.99
2019-05-16T09:10:30.769Z,1000.99
2019-05-16T09:11:00.817Z,1001.01
2019-05-16T09:12:32.776Z,1001.01
2019-05-16T09:13:32.816Z,1000.95
2019-05-16T09:14:36.277Z,1000.96
2019-05-16T09:15:32.851Z,1000.91
2019-05-16T09:16:32.875Z,1000.90
2019-05-16T09:17:32.904Z,1000.83
2019-05-16T09:18:30.894Z,1000.98
2019-05-16T09:18:37.937Z,1001.01
2019-05-16T09:18:40.825Z,1000.82
2019-05-16T09:19:32.949Z,1000.86
2019-05-16T09:20:32.971Z,1000.86
2019-05-16T09:21:32.999Z,1000.82
2019-05-16T09:22:33.020Z,1000.76
2019-05-16T09:23:33.044Z,1000.76
2019-05-16T09:24:33.077Z,1000.68
2019-05-16T09:25:33.096Z,1000.70
2019-05-16T09:26:33.119Z,1000.68
2019-05-16T09:27:33.142Z,1000.68
2019-05-16T09:28:33.167Z,1000.67
2019-05-16T09:29:33.193Z,1000.66
2019-05-16T09:30:33.214Z,1000.66
2019-05-16T09:31:33.240Z,1000.61
2019-05-16T09:32:33.263Z,1000.62
2019-05-16T09:33:33.288Z,1000.63
2019-05-16T09:34:33.310Z,1000.62
2019-05-16T09:35:33.335Z,1000.67
2019-05-16T09:36:33.363Z,1000.66
2019-05-16T09:37:33.384Z,1000.64
2019-05-16T09:38:33.419Z,1000.63
2019-05-16T09:39:33.432Z,1000.71
2019-05-16T09:40:33.580Z,1000.64
2019-05-16T09:41:49.780Z,1000.65
2019-05-16T09:42:33.507Z,1000.61
2019-05-16T09:43:33.541Z,1000.62
2019-05-16T09:44:33.554Z,1000.60
2019-05-16T09:45:33.575Z,1000.59
2019-05-16T09:46:33.608Z,1000.55
2019-05-16T09:47:33.625Z,1000.56
2019-05-16T09:48:33.646Z,1000.58
2019-05-16T09:49:33.669Z,1000.61
2019-05-16T09:50:33.697Z,1000.56
2019-05-16T09:51:33.733Z,1000.56
2019-05-16T09:52:33.739Z,1000.52
2019-05-16T09:53:36.457Z,1000.53
2019-05-16T09:54:33.797Z,1000.57
2019-05-16T09:55:33.808Z,1000.56
2019-05-16T09:56:33.833Z,1000.56
2019-05-16T09:57:33.858Z,1000.58
2019-05-16T09:58:33.882Z,1000.59
2019-05-16T09:59:33.910Z,1000.60
2019-05-16T10:00:33.930Z,1000.61
2019-05-16T10:01:33.956Z,1000.64
2019-05-16T10:02:36.546Z,1000.63
2019-05-16T10:03:33.998Z,1000.69
2019-05-16T10:04:36.613Z,1000.71
2019-05-16T10:05:34.047Z,1000.78
2019-05-16T10:06:34.076Z,1000.81
2019-05-16T10:07:34.097Z,1000.86
2019-05-16T10:08:37.450Z,1000.86
2019-05-16T10:09:44.035Z,1000.84
2019-05-16T10:10:34.165Z,1000.93
2019-05-16T10:11:34.198Z,1000.96
2019-05-16T10:12:34.214Z,1000.92
2019-05-16T10:13:34.238Z,1001.03
2019-05-16T10:14:34.260Z,1001.07
2019-05-16T10:15:34.384Z,1001.05
2019-05-16T10:16:36.521Z,1001.08
2019-05-16T10:17:36.788Z,1001.10
2019-05-16T10:18:36.842Z,1001.09
2019-05-16T10:19:36.664Z,1001.12
2019-05-16T10:20:36.577Z,1001.07
2019-05-16T10:21:36.969Z,1001.11
2019-05-16T10:22:34.444Z,1001.14
2019-05-16T10:23:36.425Z,1001.10
2019-05-16T10:24:37.349Z,1001.07
2019-05-16T10:25:37.531Z,1001.01
2019-05-16T10:26:37.041Z,1001.06
2019-05-16T10:27:36.614Z,1001.07
2019-05-16T10:28:38.189Z,1001.09
2019-05-16T10:29:37.541Z,1001.08
2019-05-16T10:30:34.630Z,1001.14
2019-05-16T10:31:45.089Z,1001.17
2019-05-16T10:32:36.519Z,1001.20
2019-05-16T10:33:38.659Z,1001.21
2019-05-16T10:34:37.092Z,1001.22
2019-05-16T10:35:37.235Z,1001.22
2019-05-16T10:36:37.152Z,1001.22
2019-05-16T10:37:37.385Z,1001.26
2019-05-16T10:38:37.383Z,1001.20
2019-05-16T10:39:37.285Z,1001.24
2019-05-16T10:40:36.884Z,1001.26
2019-05-16T10:41:36.948Z,1001.26
2019-05-16T10:42:37.651Z,1001.25
2019-05-16T10:43:36.982Z,1001.29
2019-05-16T10:44:38.527Z,1001.27
2019-05-16T10:45:36.894Z,1001.25
2019-05-16T10:46:37.472Z,1001.30
2019-05-16T10:47:37.069Z,1001.26
2019-05-16T10:48:37.378Z,1001.31
2019-05-16T10:49:38.773Z,1001.30
2019-05-16T10:50:36.981Z,1001.29
2019-05-16T10:51:37.587Z,1001.32
2019-05-16T10:52:36.694Z,1001.30
2019-05-16T10:54:00.446Z,1001.36
2019-05-16T10:54:37.003Z,1001.39
2019-05-16T10:55:36.780Z,1001.29
2019-05-16T10:56:35.238Z,1001.35
2019-05-16T10:57:37.600Z,1001.28
2019-05-16T10:58:38.024Z,1001.36
2019-05-16T10:59:57.751Z,1001.29
2019-05-16T11:01:05.001Z,1001.34
2019-05-16T11:01:36.698Z,1001.24
2019-05-16T11:02:37.104Z,1001.27
2019-05-16T11:03:35.411Z,1001.27
2019-05-16T11:04:52.610Z,1001.26
2019-05-16T11:05:38.916Z,1001.23
2019-05-16T11:06:37.230Z,1001.27
2019-05-16T11:07:37.115Z,1001.26
2019-05-16T11:08:37.213Z,1001.26
2019-05-16T11:09:39.099Z,1001.29
2019-05-16T11:10:37.313Z,1001.35
2019-05-16T11:11:36.795Z,1001.27
2019-05-16T11:12:47.457Z,1001.26
2019-05-16T11:13:37.037Z,1001.28
2019-05-16T11:14:37.012Z,1001.28
2019-05-16T11:15:37.443Z,1001.30
2019-05-16T11:16:36.826Z,1001.31
2019-05-16T11:17:37.283Z,1001.37
2019-05-16T11:18:37.615Z,1001.33
2019-05-16T11:19:37.225Z,1001.26
2019-05-16T11:20:37.411Z,1001.28
2019-05-16T11:21:37.670Z,1001.26
2019-05-16T11:22:36.965Z,1001.24
2019-05-16T11:23:36.834Z,1001.28
2019-05-16T11:24:37.783Z,1001.28
2019-05-16T11:25:36.678Z,1001.33
2019-05-16T11:26:36.725Z,1001.31
2019-05-16T11:27:37.531Z,1001.33
2019-05-16T11:28:36.780Z,1001.34
2019-05-16T11:29:36.672Z,1001.33
2019-05-16T11:30:37.590Z,1001.36
2019-05-16T11:31:37.317Z,1001.41
2019-05-16T11:32:37.451Z,1001.42
2019-05-16T11:33:37.000Z,1001.46
2019-05-16T11:34:37.433Z,1001.44
2019-05-16T11:35:38.084Z,1001.45
2019-05-16T11:36:37.612Z,1001.45
2019-05-16T11:37:37.516Z,1001.52
2019-05-16T11:38:37.820Z,1001.51
2019-05-16T11:39:37.127Z,1001.50
2019-05-16T11:40:36.309Z,1001.51
2019-05-16T11:41:36.263Z,1001.53
2019-05-16T11:42:37.793Z,1001.59
2019-05-16T11:43:36.750Z,1001.60
2019-05-16T11:44:38.071Z,1001.59
2019-05-16T11:45:36.910Z,1001.60
2019-05-16T11:46:37.550Z,1001.55
2019-05-16T11:47:36.860Z,1001.60
2019-05-16T11:48:37.630Z,1001.52
2019-05-16T11:49:36.954Z,1001.55
2019-05-16T11:50:37.392Z,1001.55
2019-05-16T11:51:38.338Z,1001.54
2019-05-16T11:52:40.273Z,1001.55
2019-05-16T11:53:37.856Z,1001.58
2019-05-16T11:54:37.419Z,1001.57
2019-05-16T11:55:50.583Z,1001.62
2019-05-16T11:56:37.049Z,1001.62
2019-05-16T11:57:37.939Z,1001.74
2019-05-16T11:58:37.036Z,1001.74
2019-05-16T11:59:37.509Z,1001.79
2019-05-16T12:00:37.298Z,1001.79
2019-05-16T12:01:37.024Z,1001.84
2019-05-16T12:02:37.668Z,1001.83
2019-05-16T12:03:37.501Z,1001.81
2019-05-16T12:04:37.495Z,1001.83
2019-05-16T12:05:37.402Z,1001.85